Pagrindinis puslapis
METAR-TAF:

METAR-TAF

Oro uostai :

Galapagai, Ekvadoras

platuma: 00-54S, ilguma: 089-36W, Aukštis: 6 m

Dabartinis oras

Ataskaita buvo paskelbta 1 valandą ir 8 minutes, ne 00:00 UTC
Vėjas 3 kt iš Vakarų
Temperatūra 27°C
Drėgmė 89%
Slėgis 1006 hPa
Matomumas 10 km arba daugiau
Mažai debesys ne aukštis 2300 ft
Su prošvaistėmis ne aukštis 20000 ft

METAR: SEST 100000Z 27003KT 9999 FEW023 BKN200 27/25 Q1006 RMK A2972

Laikas: 19:08 (01:08 UTC)


TAF: trūkstamas

Orai ataskaitas ir orų prognozės (METAR, TAF).

turimą stotys yra geltonos ir raudonos taškus žemėlapyje.

Perkelti pele per norėdami pamatyti stoties vardą.

Tada spustelėkite, norėdami matyti oro stebėjimo ir prognozės.

Norėdami pakeisti žemėlapį: spustelėkite ant žalios mygtukų su juodo kryžiaus žemyn,; žalią mygtuką su brūkšneliu, jei norite nutolinti; arba žalių rodyklių gretimoms žemėlapius.


METAR-TAF: